Data for 04/30/2010

Time Sea-Level Adjusted Pressure Absolute Pressure Temperature Relative Humidity Dew Point   
(mb) (inHg) (mb) (inHg) (C) (F) (%) (C) (F)
00:05 1008 29.77 837 24.72 -1.3 29.7 97 -1.6 29
00:10 1008 29.77 837 24.72 -1.3 29.6 97 -1.7 28.9
00:15 1008 29.77 837 24.72 -1.4 29.5 97 -1.8 28.8
00:20 1008 29.77 838 24.75 -1.4 29.4 97 -1.9 28.6
00:25 1008 29.77 838 24.75 -1.5 29.3 97 -1.9 28.5
00:30 1008 29.77 838 24.75 -1.5 29.2 97 -2 28.4
00:35 1008 29.77 838 24.75 -1.6 29.2 97 -2 28.3
00:40 1008 29.77 838 24.75 -1.6 29.1 97 -2 28.3
00:45 1008 29.77 838 24.75 -1.6 29.1 97 -2 28.3
00:50 1009 29.8 838 24.75 -1.6 29.1 97 -2 28.4
00:55 1009 29.8 838 24.75 -1.6 29.1 97 -2 28.4
01:00 1009 29.8 838 24.75 -1.6 29.1 97 -2.1 28.3
01:05 1009 29.8 838 24.75 -1.6 29.1 97 -2.1 28.2
01:10 1009 29.8 838 24.75 -1.6 29.1 97 -2.1 28.2
01:15 1009 29.8 838 24.75 -1.6 29.1 96 -2.2 28
01:20 1009 29.8 838 24.75 -1.6 29.1 96 -2.2 28
01:25 1009 29.8 838 24.75 -1.6 29.1 95 -2.3 27.9
01:30 1009 29.8 838 24.75 -1.7 29 95 -2.3 27.8
01:35 1009 29.8 838 24.75 -1.7 29 95 -2.4 27.7
01:40 1009 29.8 838 24.75 -1.7 28.9 95 -2.4 27.6
01:45 1009 29.8 838 24.75 -1.7 28.9 95 -2.5 27.5
01:50 1009 29.8 838 24.75 -1.8 28.8 94 -2.5 27.4
01:55 1009 29.8 838 24.75 -1.8 28.8 94 -2.6 27.3
02:00 1009 29.8 838 24.75 -1.8 28.8 94 -2.6 27.4
02:05 1009 29.8 838 24.75 -1.8 28.8 94 -2.6 27.3
02:10 1009 29.8 838 24.75 -1.8 28.8 93 -2.7 27.1
02:15 1009 29.8 838 24.75 -1.7 28.9 93 -2.7 27.1
02:20 1009 29.8 838 24.75 -1.7 28.9 93 -2.8 27
02:25 1009 29.8 838 24.75 -1.7 28.9 92 -2.9 26.8
02:30 1009 29.8 838 24.75 -1.7 28.9 92 -2.8 26.9
02:35 1009 29.8 838 24.75 -1.7 28.9 92 -2.9 26.7
02:40 1009 29.8 838 24.75 -1.7 29 92 -2.8 26.9
02:45 1009 29.8 838 24.75 -1.7 28.9 92 -2.8 26.9
02:50 1009 29.8 838 24.75 -1.6 29.1 92 -2.8 27
02:55 1009 29.8 838 24.75 -1.7 29 92 -2.7 27.1
03:00 1009 29.8 838 24.75 -1.7 29 93 -2.7 27.1
03:05 1009 29.8 838 24.75 -1.7 29 93 -2.7 27.2
03:10 1009 29.8 838 24.75 -1.7 28.9 93 -2.7 27.2
03:15 1009 29.8 838 24.75 -1.7 28.9 93 -2.6 27.3
03:20 1009 29.8 838 24.75 -1.7 28.9 93 -2.7 27.2
03:25 1009 29.8 838 24.75 -1.6 29 92 -2.8 26.9
03:30 1009 29.8 838 24.75 -1.6 29.2 91 -2.9 26.8
03:35 1009 29.8 838 24.75 -1.5 29.3 90 -3 26.7
03:40 1009 29.8 839 24.78 -1.4 29.4 89 -3 26.6
03:45 1009 29.8 839 24.78 -1.4 29.5 89 -2.9 26.7
03:50 1009 29.8 839 24.78 -1.4 29.5 89 -2.9 26.8
03:55 1009 29.8 838 24.75 -1.4 29.6 89 -2.9 26.8
04:00 1009 29.8 839 24.78 -1.4 29.5 90 -2.8 26.9
04:05 1009 29.8 839 24.78 -1.4 29.5 90 -2.9 26.9
04:10 1009 29.8 839 24.78 -1.4 29.5 90 -2.9 26.8
04:15 1010 29.83 839 24.78 -1.3 29.6 89 -2.9 26.8
04:20 1010 29.83 839 24.78 -1.3 29.6 89 -2.9 26.8
04:25 1009 29.8 839 24.78 -1.4 29.6 90 -2.8 26.9
04:30 1010 29.83 839 24.78 -1.4 29.5 90 -2.9 26.8
04:35 1010 29.83 839 24.78 -1.3 29.6 90 -2.8 27
04:40 1010 29.83 839 24.78 -1.3 29.7 89 -2.8 26.9
04:45 1010 29.83 839 24.78 -1.3 29.7 89 -2.8 27
04:50 1010 29.83 839 24.78 -1.3 29.6 90 -2.8 27
04:55 1010 29.83 839 24.78 -1.4 29.5 91 -2.6 27.2
05:00 1010 29.83 839 24.78 -1.5 29.4 92 -2.6 27.3
05:05 1010 29.83 839 24.78 -1.5 29.3 92 -2.7 27.1
05:10 1010 29.83 839 24.78 -1.4 29.4 91 -2.7 27.1
05:15 1010 29.83 839 24.78 -1.3 29.6 90 -2.8 27
05:20 1010 29.83 839 24.78 -1.2 29.8 89 -2.8 26.9
05:25 1010 29.83 839 24.78 -1.2 29.9 88 -2.9 26.7
05:30 1010 29.83 839 24.78 -1.2 29.9 88 -2.9 26.7
05:35 1010 29.83 839 24.78 -1.3 29.6 90 -2.8 26.9
05:40 1010 29.83 839 24.78 -1.4 29.5 90 -2.9 26.8
05:45 1010 29.83 839 24.78 -1.4 29.4 90 -2.8 26.9
05:50 1010 29.83 839 24.78 -1.5 29.3 90 -2.9 26.8
05:55 1010 29.83 839 24.78 -1.5 29.4 90 -2.9 26.8
06:00 1010 29.83 839 24.78 -1.4 29.4 89 -3 26.7
06:05 1010 29.83 839 24.78 -1.4 29.4 90 -2.9 26.8
06:10 1010 29.83 839 24.78 -1.3 29.6 88 -3.1 26.5
06:15 1010 29.83 839 24.78 -1.3 29.6 89 -3 26.6
06:20 1010 29.83 839 24.78 -1.3 29.6 88 -3 26.5
06:25 1010 29.83 839 24.78 -1.2 29.8 88 -3 26.7
06:30 1010 29.83 839 24.78 -1.2 29.8 87 -3 26.6
06:35 1010 29.83 839 24.78 -1.1 30 87 -3 26.6
06:40 1010 29.83 839 24.78 -1.1 29.9 86 -3.1 26.4
06:45 1010 29.83 839 24.78 -1.2 29.9 89 -2.8 27
06:50 1010 29.83 839 24.78 -1.4 29.5 90 -2.8 27
06:55 1010 29.83 839 24.78 -1.5 29.2 91 -2.7 27.1
07:00 1010 29.83 839 24.78 -1.6 29.2 92 -2.7 27.1
07:05 1010 29.83 839 24.78 -1.5 29.3 91 -2.7 27.1
07:10 1010 29.83 840 24.81 -1.4 29.4 91 -2.8 27
07:15 1010 29.83 840 24.81 -1.4 29.4 91 -2.8 27
07:20 1010 29.83 840 24.81 -1.4 29.5 90 -2.8 27
07:25 1010 29.83 840 24.81 -1.4 29.5 90 -2.8 26.9
07:30 1010 29.83 840 24.81 -1.3 29.6 90 -2.8 26.9
07:35 1010 29.83 840 24.81 -1.3 29.7 89 -2.9 26.8
07:40 1010 29.83 840 24.81 -1.2 29.8 88 -3 26.6
07:45 1010 29.83 840 24.81 -1.1 30 87 -3 26.6
07:50 1010 29.83 840 24.81 -1.1 30 88 -2.9 26.7
07:55 1010 29.83 840 24.81 -1.1 30 87 -3 26.6
08:00 1010 29.83 840 24.81 -1 30.3 86 -3 26.6
08:05 1011 29.85 840 24.81 -0.8 30.6 86 -2.9 26.8
08:10 1011 29.85 840 24.81 -0.7 30.7 86 -2.8 26.9
08:15 1011 29.85 840 24.81 -0.6 30.9 84 -2.9 26.7
08:20 1011 29.85 840 24.81 -0.6 31 84 -3 26.6
08:25 1011 29.85 840 24.81 -0.5 31.1 83 -3 26.6
08:30 1011 29.85 840 24.81 -0.4 31.2 83 -3 26.7
08:35 1011 29.85 840 24.81 -0.4 31.3 82 -3.2 26.3
08:40 1011 29.85 840 24.81 -0.5 31.2 82 -3.2 26.2
08:45 1011 29.85 840 24.81 -0.5 31.1 82 -3.2 26.3
08:50 1011 29.85 840 24.81 -0.3 31.5 81 -3.1 26.4
08:55 1011 29.85 840 24.81 -0.2 31.6 80 -3.2 26.2
09:00 1011 29.85 840 24.81 -0.3 31.4 81 -3.2 26.3
09:05 1011 29.85 840 24.81 -0.3 31.5 81 -3.2 26.2
09:10 1011 29.85 840 24.81 -0.5 31.1 82 -3.2 26.2
09:15 1011 29.85 840 24.81 -0.6 30.9 83 -3.2 26.3
09:20 1011 29.85 840 24.81 -0.5 31 82 -3.2 26.3
09:25 1011 29.85 840 24.81 -0.5 31.1 82 -3.2 26.3
09:30 1011 29.85 840 24.81 -0.4 31.3 81 -3.3 26.1
09:35 1011 29.85 840 24.81 -0.3 31.4 81 -3.2 26.3
09:40 1011 29.85 840 24.81 -0.3 31.5 79 -3.4 25.8
09:45 1011 29.85 840 24.81 -0.3 31.5 79 -3.4 25.8
09:50 1011 29.85 840 24.81 -0.2 31.7 78 -3.5 25.7
09:55 1011 29.85 841 24.83 -0.1 31.9 79 -3.3 26
10:00 1011 29.85 840 24.81 -0 31.9 78 -3.4 25.9
10:05 1011 29.85 841 24.83 -0 32 79 -3.3 26.1
10:10 1011 29.85 841 24.83 -0 32 78 -3.5 25.7
10:15 1012 29.88 841 24.83 -0 32 78 -3.5 25.8
10:20 1011 29.85 841 24.83 0 32 78 -3.3 26
10:25 1011 29.85 841 24.83 0 32 78 -3.3 26
10:30 1011 29.85 841 24.83 0 32.1 78 -3.3 26.1
10:35 1012 29.88 841 24.83 0.2 32.3 79 -3.1 26.4
10:40 1012 29.88 841 24.83 0.1 32.2 79 -3 26.6
10:45 1012 29.88 841 24.83 0 32 82 -2.7 27.1
10:50 1011 29.85 841 24.83 -0.1 31.9 83 -2.6 27.3
10:55 1012 29.88 841 24.83 -0.2 31.6 85 -2.4 27.7
11:00 1012 29.88 841 24.83 -0.1 31.8 84 -2.4 27.6
11:05 1011 29.85 841 24.83 0.1 32.1 84 -2.3 27.9
11:10 1011 29.85 841 24.83 0.3 32.6 83 -2.2 28
11:15 1011 29.85 841 24.83 0.5 32.9 83 -2 28.4
11:20 1011 29.85 841 24.83 0.9 33.6 82 -1.8 28.7
11:25 1011 29.85 841 24.83 0.8 33.4 82 -1.9 28.6
11:30 1011 29.85 841 24.83 0.9 33.7 81 -2 28.5
11:35 1011 29.85 840 24.81 1.1 33.9 80 -2.1 28.3
11:40 1011 29.85 841 24.83 0.9 33.6 80 -2.1 28.2
11:45 1011 29.85 841 24.83 0.8 33.5 80 -2.2 28
11:50 1011 29.85 840 24.81 1.2 34.2 78 -2.2 28.1
11:55 1011 29.85 840 24.81 1.3 34.4 79 -2 28.4
12:00 1011 29.85 840 24.81 1.3 34.4 80 -1.8 28.8
12:05 1011 29.85 841 24.83 1.2 34.2 81 -1.6 29.1
12:10 1011 29.85 840 24.81 0.5 32.9 84 -2 28.4
12:15 1011 29.85 840 24.81 0.4 32.7 82 -2.3 27.8
12:20 1011 29.85 840 24.81 0.6 33.1 84 -1.8 28.7
12:25 1011 29.85 840 24.81 0.7 33.2 83 -1.8 28.7
12:30 1011 29.85 840 24.81 0.7 33.2 84 -1.7 29
12:35 1011 29.85 840 24.81 0.8 33.4 85 -1.4 29.4
12:40 1011 29.85 840 24.81 0.9 33.6 81 -2 28.4
12:45 1011 29.85 840 24.81 1.2 34.1 79 -2.1 28.2
12:50 1011 29.85 840 24.81 1.1 34.1 81 -1.8 28.8
12:55 1011 29.85 840 24.81 1.1 34 82 -1.6 29.1
13:00 1011 29.85 840 24.81 1.1 34 80 -2 28.5
13:05 1011 29.85 840 24.81 1.4 34.5 79 -1.9 28.6
13:10 1011 29.85 840 24.81 1.5 34.7 79 -1.7 28.9
13:15 1011 29.85 840 24.81 1.7 35 78 -1.7 28.9
13:20 1011 29.85 840 24.81 1.6 34.9 79 -1.6 29.1
13:25 1011 29.85 840 24.81 1.4 34.6 80 -1.7 28.9
13:30 1011 29.85 840 24.81 1.1 34 80 -2 28.4
13:35 1011 29.85 840 24.81 0.7 33.2 80 -2.3 27.9
13:40 1011 29.85 840 24.81 1 33.7 79 -2.3 27.9
13:45 1011 29.85 840 24.81 1.3 34.3 78 -2.1 28.2
13:50 1011 29.85 840 24.81 2 35.6 70 -2.9 26.7
13:55 1011 29.85 840 24.81 1.8 35.3 71 -2.9 26.8
14:00 1011 29.85 840 24.81 1.9 35.4 70 -3 26.6
14:05 1011 29.85 840 24.81 1.9 35.4 72 -2.7 27.2
14:10 1011 29.85 840 24.81 2.3 36.1 71 -2.5 27.6
14:15 1011 29.85 840 24.81 2 35.6 76 -1.8 28.7
14:20 1011 29.85 840 24.81 1.6 34.8 77 -2 28.4
14:25 1011 29.85 840 24.81 2 35.5 76 -1.8 28.7
14:30 1011 29.85 840 24.81 2 35.5 75 -2 28.5
14:35 1011 29.85 840 24.81 2.3 36.1 73 -2.1 28.3
14:40 1011 29.85 840 24.81 2.2 35.9 74 -2 28.3
14:45 1011 29.85 840 24.81 2 35.6 72 -2.5 27.5
14:50 1011 29.85 840 24.81 2.1 35.7 74 -2.1 28.2
14:55 1011 29.85 840 24.81 2.4 36.4 70 -2.5 27.5
15:00 1011 29.85 840 24.81 2.4 36.3 72 -2.1 28.2
15:05 1011 29.85 840 24.81 2.5 36.5 71 -2.3 27.9
15:10 1011 29.85 840 24.81 2.7 36.9 70 -2.2 28.1
15:15 1011 29.85 840 24.81 2.8 37 70 -2.3 27.9
15:20 1010 29.83 840 24.81 2.1 35.8 69 -2.9 26.8
15:25 1010 29.83 840 24.81 2 35.7 71 -2.6 27.2
15:30 1010 29.83 840 24.81 2.1 35.7 69 -3 26.7
15:35 1010 29.83 840 24.81 1.9 35.5 70 -2.9 26.7
15:40 1010 29.83 839 24.78 2 35.7 67 -3.4 25.9
15:45 1010 29.83 839 24.78 2 35.7 68 -3.3 26.1
15:50 1010 29.83 840 24.81 2.1 35.7 67 -3.4 25.9
15:55 1010 29.83 839 24.78 2.1 35.7 66 -3.7 25.3
16:00 1010 29.83 840 24.81 2 35.6 65 -3.9 24.9
16:05 1010 29.83 840 24.81 2.1 35.8 66 -3.6 25.6
16:10 1010 29.83 839 24.78 2.4 36.3 65 -3.6 25.6
16:15 1010 29.83 839 24.78 2.5 36.4 66 -3.2 26.3
16:20 1010 29.83 839 24.78 2.9 37.2 64 -3.3 26
16:25 1010 29.83 839 24.78 3 37.4 62 -3.6 25.6
16:30 1010 29.83 839 24.78 2.9 37.2 62 -3.6 25.5
16:35 1010 29.83 839 24.78 3.2 37.7 59 -4.1 24.7
16:40 1010 29.83 839 24.78 3.2 37.7 60 -3.8 25.2
16:45 1010 29.83 839 24.78 3.3 38 58 -4.1 24.7
16:50 1010 29.83 839 24.78 3.1 37.6 61 -3.6 25.5
16:55 1010 29.83 839 24.78 3 37.4 62 -3.5 25.7
17:00 1010 29.83 839 24.78 3 37.4 60 -4 24.8
17:05 1010 29.83 839 24.78 3.2 37.8 58 -4.2 24.4
17:10 1010 29.83 839 24.78 3.5 38.4 56 -4.5 23.9
17:15 1010 29.83 839 24.78 3.6 38.4 57 -4.2 24.4
17:20 1010 29.83 839 24.78 3.6 38.4 59 -3.7 25.3
17:25 1010 29.83 839 24.78 3.7 38.7 57 -4.1 24.6
17:30 1010 29.83 839 24.78 3.7 38.6 61 -3.2 26.2
17:35 1010 29.83 839 24.78 3.5 38.3 64 -2.8 27
17:40 1010 29.83 839 24.78 3.3 37.9 69 -1.9 28.6
17:45 1010 29.83 839 24.78 2.9 37.3 76 -0.8 30.5
17:50 1010 29.83 839 24.78 2.4 36.3 81 -0.6 30.9
17:55 1010 29.83 839 24.78 2.3 36.1 79 -1 30.2
18:00 1010 29.83 839 24.78 2.3 36.2 79 -1 30.2
18:05 1010 29.83 839 24.78 2.8 37 76 -1.1 30
18:10 1010 29.83 840 24.81 3 37.4 75 -1 30.2
18:15 1010 29.83 840 24.81 3.2 37.8 74 -1 30.2
18:20 1010 29.83 839 24.78 3.2 37.7 75 -0.8 30.5
18:25 1010 29.83 839 24.78 3.2 37.8 73 -1.2 29.8
18:30 1010 29.83 839 24.78 3.2 37.8 72 -1.4 29.5
18:35 1010 29.83 839 24.78 3.2 37.8 73 -1.2 29.9
18:40 1010 29.83 839 24.78 3.1 37.6 75 -0.9 30.4
18:45 1010 29.83 839 24.78 2.7 36.9 76 -1.1 30.1
18:50 1010 29.83 839 24.78 2.8 37 74 -1.3 29.6
18:55 1010 29.83 839 24.78 3.1 37.5 71 -1.6 29.1
19:00 1010 29.83 839 24.78 3.3 37.9 72 -1.3 29.7
19:05 1010 29.83 839 24.78 3.2 37.7 73 -1.1 29.9
19:10 1010 29.83 839 24.78 3 37.4 74 -1.3 29.7
19:15 1010 29.83 839 24.78 3 37.4 75 -1 30.2
19:20 1010 29.83 839 24.78 3 37.4 75 -1.1 30.1
19:25 1010 29.83 839 24.78 3 37.4 74 -1.2 29.9
19:30 1010 29.83 839 24.78 3.1 37.5 74 -1.2 29.9
19:35 1010 29.83 839 24.78 3 37.4 75 -0.9 30.3
19:40 1010 29.83 839 24.78 2.8 37.1 81 -0.2 31.7
19:45 1010 29.83 839 24.78 2.3 36.1 83 -0.3 31.5
19:50 1010 29.83 839 24.78 2.1 35.7 84 -0.4 31.3
19:55 1010 29.83 839 24.78 2.1 35.8 83 -0.4 31.2
20:00 1010 29.83 839 24.78 2.2 35.9 81 -0.7 30.7
20:05 1010 29.83 839 24.78 2.3 36.1 81 -0.7 30.7
20:10 1010 29.83 839 24.78 2.4 36.2 81 -0.5 31
20:15 1010 29.83 839 24.78 2.4 36.3 83 -0.3 31.5
20:20 1010 29.83 839 24.78 2.5 36.4 83 -0.2 31.7
20:25 1010 29.83 839 24.78 2.5 36.5 84 0.1 32.2
20:30 1010 29.83 839 24.78 2.3 36.2 85 0.1 32.2
20:35 1010 29.83 839 24.78 2 35.7 86 -0 32
20:40 1010 29.83 839 24.78 1.8 35.2 88 -0.1 31.9
20:45 1010 29.83 839 24.78 1.7 35 88 -0.1 31.9
20:50 1010 29.83 839 24.78 1.6 34.9 89 -0.1 31.9
20:55 1010 29.83 839 24.78 1.5 34.7 90 0 32
21:00 1010 29.83 840 24.81 1.2 34.2 92 0 32.1
21:05 1010 29.83 839 24.78 1.2 34.1 92 0 32
21:10 1010 29.83 840 24.81 1.1 34 92 -0 32
21:15 1010 29.83 840 24.81 0.9 33.6 93 -0.1 31.8
21:20 1010 29.83 840 24.81 0.7 33.3 94 -0.1 31.8
21:25 1010 29.83 840 24.81 0.6 33 95 -0.1 31.9
21:30 1010 29.83 840 24.81 0.6 33 96 -0.1 31.9
21:35 1010 29.83 840 24.81 0.6 33.1 96 -0 31.9
21:40 1010 29.83 839 24.78 0.6 33.1 95 -0 31.9
21:45 1010 29.83 840 24.81 0.6 33.2 96 0 32
21:50 1010 29.83 840 24.81 0.9 33.6 95 0.2 32.4
21:55 1010 29.83 840 24.81 1.1 33.9 94 0.3 32.5
22:00 1010 29.83 840 24.81 1 33.8 94 0.1 32.1
22:05 1010 29.83 840 24.81 0.7 33.3 94 -0.1 31.9
22:10 1010 29.83 840 24.81 0.5 32.9 95 -0.2 31.7
22:15 1010 29.83 840 24.81 0.5 32.8 95 -0.2 31.6
22:20 1010 29.83 840 24.81 0.4 32.7 96 -0.2 31.6
22:25 1010 29.83 840 24.81 0.5 32.8 95 -0.2 31.6
22:30 1010 29.83 840 24.81 0.5 33 95 -0.2 31.6
22:35 1010 29.83 840 24.81 0.5 32.9 95 -0.3 31.5
22:40 1010 29.83 840 24.81 0.4 32.8 95 -0.3 31.5
22:45 1010 29.83 840 24.81 0.4 32.7 95 -0.3 31.4
22:50 1010 29.83 840 24.81 0.4 32.7 94 -0.4 31.2
22:55 1010 29.83 840 24.81 0.7 33.2 91 -0.6 30.9
23:00 1010 29.83 840 24.81 0.9 33.5 89 -0.8 30.6
23:05 1010 29.83 840 24.81 0.9 33.7 87 -1 30.3
23:10 1010 29.83 840 24.81 0.9 33.7 85 -1.3 29.6
23:15 1010 29.83 840 24.81 0.9 33.7 83 -1.6 29.1
23:20 1010 29.83 840 24.81 0.9 33.7 83 -1.6 29.2
23:25 1010 29.83 840 24.81 0.9 33.6 83 -1.6 29.1
23:30 1010 29.83 840 24.81 0.9 33.6 83 -1.7 28.9
23:35 1010 29.83 840 24.81 0.8 33.5 83 -1.8 28.8
23:40 1010 29.83 840 24.81 0.8 33.4 82 -2 28.4
23:45 1010 29.83 840 24.81 0.7 33.3 81 -2.2 28.1
23:50 1010 29.83 840 24.81 0.8 33.5 80 -2.2 28.1
23:55 1010 29.83 840 24.81 0.9 33.6 80 -2.2 28
24:00 1010 29.83 840 24.81 0.9 33.6 79 -2.3 27.9